Kezdőlap
METAR-TAF:

METAR-TAF

Repülőterek :

Litchfield Municipal Airport

Litchfield, Illinois, Amerikai Egyesült Államok

földrajzi szélesség: 39-09-44N, földrajzi hosszúság: 089-40-28W, magasság: 210 m

Jelenlegi meteorológiai megfigyelések

A jelentés 11 perccel ezelõtt készült, 16:35 UTC
Keleti szél 5 kt
Hőmérséklet 26°C
Páratartalom 79%
Légköri nyomás 1019 hPa
Látótávolság: 16.1 km
Szakadozott felhőzet 2700 lábon
Szakadozott felhőzet 11000 lábon

METAR: K3LF 131635Z AUTO 09005KT 10SM BKN027 BKN110 26/22 A3010 RMK AO2 T02630223

Idő: 11:46 (16:46 UTC)


TAF: hiányzik

Meteorológiai megfigyelések és előrejelzések több, mint 4000 repülőtéren (METAR és TAF jelentéseket).

A térképen piros és sárga pontok jelzik az elérhető meteorológiai állomásokat.

Mozgassa az egeret a pont fölött, hogy megjelenjen az állomás neve.

Azután kattintson az időjárási megfigyelések és előrejelzések megtekintéséhez.

A térkép megváltoztatása: kattintson a fekete keresztel jelölt zöld gombra ráközelítéshez, a vonallal jelölt zöld gombra távolításhoz, vagy a zöld nyilakra a szomszédos térképek eléréséhez.


METAR-TAF: